createdAt,value
2023-04-18T00:02:19.219Z,86.65
2023-04-18T00:05:22.822Z,86.84
2023-04-18T00:08:25.605Z,87.35
2023-04-18T00:11:28.645Z,87.41
2023-04-18T00:14:31.248Z,87.79
2023-04-18T00:17:35.616Z,87.18
2023-04-18T00:20:39.323Z,86.07
2023-04-18T00:23:43.258Z,86.94
2023-04-18T00:26:46.137Z,86.65
2023-04-18T00:29:49.701Z,86.35
2023-04-18T00:32:52.307Z,86.68
2023-04-18T00:35:55.226Z,86.91
2023-04-18T00:38:57.874Z,87.00
2023-04-18T00:42:01.564Z,87.17
2023-04-18T00:45:04.531Z,87.27
2023-04-18T00:48:07.688Z,86.80
2023-04-18T00:51:11.544Z,87.03
2023-04-18T00:54:15.086Z,87.37
2023-04-18T00:57:17.925Z,88.04
2023-04-18T01:00:22.043Z,87.90
2023-04-18T01:03:26.191Z,87.54
2023-04-18T01:06:29.432Z,85.55
2023-04-18T01:09:32.402Z,85.39
2023-04-18T01:12:37.596Z,82.97
2023-04-18T01:15:44.755Z,82.35
2023-04-18T01:18:47.589Z,82.37
2023-04-18T01:21:50.601Z,82.15
2023-04-18T01:24:53.424Z,81.81
2023-04-18T01:27:58.780Z,81.40
2023-04-18T01:31:03.478Z,81.97
2023-04-18T01:34:06.540Z,81.63
2023-04-18T01:37:09.802Z,81.89
2023-04-18T01:40:12.568Z,81.87
2023-04-18T01:43:15.429Z,81.87
2023-04-18T01:46:17.958Z,81.92
2023-04-18T01:49:20.940Z,82.49
2023-04-18T01:52:25.284Z,82.36
2023-04-18T01:55:28.150Z,81.80
2023-04-18T01:58:30.761Z,82.12
2023-04-18T02:01:33.598Z,81.69
2023-04-18T02:04:36.458Z,81.62
2023-04-18T02:07:40.309Z,81.75
2023-04-18T02:10:43.508Z,82.27
2023-04-18T02:13:46.094Z,81.55
2023-04-18T02:16:48.978Z,81.70
2023-04-18T02:19:52.784Z,81.21
2023-04-18T02:22:55.618Z,81.37
2023-04-18T02:25:58.258Z,81.36
2023-04-18T02:29:01.539Z,80.94
2023-04-18T02:32:05.442Z,80.91
2023-04-18T02:35:08.485Z,81.13
2023-04-18T02:38:10.985Z,81.60
2023-04-18T02:41:17.456Z,81.45
2023-04-18T02:44:20.640Z,82.05
2023-04-18T02:48:03.498Z,82.26
2023-04-18T02:51:07.955Z,82.53
2023-04-18T02:54:11.600Z,82.61
2023-04-18T02:57:14.764Z,82.84
2023-04-18T03:00:19.708Z,82.62
2023-04-18T03:03:24.056Z,82.57
2023-04-18T03:06:27.939Z,82.59
2023-04-18T03:09:30.842Z,82.70
2023-04-18T03:12:34.615Z,82.42
2023-04-18T03:15:38.036Z,81.83
2023-04-18T03:18:41.333Z,81.54
2023-04-18T03:21:44.140Z,82.05
2023-04-18T03:24:47.810Z,81.93
2023-04-18T03:27:50.934Z,82.52
2023-04-18T03:30:54.985Z,83.04
2023-04-18T03:33:58.225Z,83.40
2023-04-18T03:37:02.245Z,84.21
2023-04-18T03:40:06.483Z,83.81
2023-04-18T03:43:10.017Z,84.63
2023-04-18T03:46:12.886Z,85.35
2023-04-18T03:49:16.151Z,85.76
2023-04-18T03:52:20.156Z,86.19
2023-04-18T03:55:23.054Z,86.87
2023-04-18T03:58:26.014Z,87.58
2023-04-18T04:01:29.832Z,88.32
2023-04-18T04:04:33.002Z,89.01
2023-04-18T04:07:55.652Z,89.59
2023-04-18T04:10:58.577Z,90.45
2023-04-18T04:14:02.205Z,91.12
2023-04-18T04:17:06.267Z,92.05
2023-04-18T04:20:09.668Z,92.35
2023-04-18T04:23:12.877Z,93.26
2023-04-18T04:26:15.820Z,94.33
2023-04-18T04:29:21.593Z,94.62
2023-04-18T04:32:27.586Z,94.26
2023-04-18T04:35:32.174Z,95.00
2023-04-18T04:38:38.492Z,95.15
2023-04-18T04:41:41.921Z,95.76
2023-04-18T04:44:46.042Z,95.29
2023-04-18T04:47:49.187Z,95.45
2023-04-18T04:50:53.660Z,95.52
2023-04-18T04:53:56.744Z,95.94
2023-04-18T04:57:02.199Z,96.03
2023-04-18T05:00:07.666Z,95.96
2023-04-18T05:03:11.626Z,95.86
2023-04-18T05:06:20.448Z,96.69
2023-04-18T05:09:23.252Z,95.97
2023-04-18T05:12:26.879Z,95.73
2023-04-18T05:15:30.745Z,95.28
2023-04-18T05:18:35.016Z,95.97
2023-04-18T05:21:38.354Z,96.08
2023-04-18T05:24:41.962Z,95.85
2023-04-18T05:27:45.510Z,96.31
2023-04-18T05:30:48.924Z,96.00
2023-04-18T05:33:52.312Z,97.01
2023-04-18T05:36:55.579Z,96.62
2023-04-18T05:40:00.574Z,96.90
2023-04-18T05:43:04.525Z,96.85
2023-04-18T05:46:09.133Z,95.39
2023-04-18T05:49:13.120Z,95.05
2023-04-18T05:52:16.301Z,94.73
2023-04-18T05:55:19.193Z,91.88
2023-04-18T05:58:21.800Z,92.29
2023-04-18T06:01:24.703Z,92.09
2023-04-18T06:04:27.859Z,89.51
2023-04-18T06:07:30.690Z,88.69
2023-04-18T06:10:33.814Z,87.69
2023-04-18T06:13:37.281Z,87.27
2023-04-18T06:16:40.252Z,86.97
2023-04-18T06:19:42.937Z,84.99
2023-04-18T06:22:45.807Z,86.06
2023-04-18T06:25:48.482Z,83.97
2023-04-18T06:28:52.136Z,82.51
2023-04-18T06:31:54.839Z,82.44
2023-04-18T06:34:57.741Z,82.10
2023-04-18T06:38:00.271Z,81.29
2023-04-18T06:41:03.196Z,81.33
2023-04-18T06:44:05.774Z,80.09
2023-04-18T06:47:09.248Z,80.41
2023-04-18T06:50:11.865Z,77.96
2023-04-18T06:53:15.164Z,77.84
2023-04-18T06:56:17.742Z,77.36
2023-04-18T06:59:21.662Z,76.83
2023-04-18T07:02:24.562Z,76.86
2023-04-18T07:05:27.715Z,76.48
2023-04-18T07:08:30.346Z,75.20
2023-04-18T07:11:33.264Z,75.46
2023-04-18T07:14:36.128Z,74.68
2023-04-18T07:17:39.008Z,75.12
2023-04-18T07:20:41.750Z,74.40
2023-04-18T07:23:44.614Z,74.12
2023-04-18T07:26:47.438Z,75.29
2023-04-18T07:29:50.766Z,73.04
2023-04-18T07:32:53.386Z,73.89
2023-04-18T07:35:56.230Z,73.58
2023-04-18T07:38:58.963Z,70.55
2023-04-18T07:42:06.241Z,70.19
2023-04-18T07:45:09.084Z,67.59
2023-04-18T07:48:11.987Z,68.73
2023-04-18T07:51:14.813Z,70.23
2023-04-18T07:54:17.756Z,67.17
2023-04-18T07:57:20.463Z,66.45
2023-04-18T08:00:24.253Z,64.46
2023-04-18T08:03:27.837Z,63.60
2023-04-18T08:06:30.836Z,61.01
2023-04-18T08:09:34.434Z,61.24
2023-04-18T08:12:37.541Z,58.92
2023-04-18T08:15:40.829Z,59.53
2023-04-18T08:18:43.301Z,60.29
2023-04-18T08:21:46.341Z,59.41
2023-04-18T08:25:03.276Z,60.35
2023-04-18T08:28:07.873Z,58.89
2023-04-18T08:31:14.896Z,59.01
2023-04-18T08:34:18.558Z,57.23
2023-04-18T08:37:21.101Z,56.72
2023-04-18T08:40:24.276Z,59.02
2023-04-18T08:43:26.904Z,55.12
2023-04-18T08:46:34.144Z,55.36
2023-04-18T08:49:37.376Z,55.07
2023-04-18T08:52:45.604Z,54.43
2023-04-18T08:55:54.002Z,54.54
2023-04-18T08:59:00.229Z,53.94
2023-04-18T09:02:04.232Z,54.68
2023-04-18T09:05:11.853Z,54.09
2023-04-18T09:08:24.062Z,55.53
2023-04-18T09:11:29.271Z,55.00
2023-04-18T09:14:33.642Z,54.92
2023-04-18T09:17:38.852Z,55.70
2023-04-18T09:20:42.434Z,55.49
2023-04-18T09:23:47.477Z,55.39
2023-04-18T09:26:51.296Z,55.47
2023-04-18T09:29:56.519Z,55.38
2023-04-18T09:33:01.577Z,53.94
2023-04-18T09:36:20.373Z,52.64
2023-04-18T09:39:29.329Z,52.34
2023-04-18T09:42:36.240Z,52.05
2023-04-18T09:45:38.925Z,48.36
2023-04-18T09:48:42.017Z,47.60
2023-04-18T09:51:46.091Z,46.81
2023-04-18T09:54:49.838Z,48.11
2023-04-18T09:57:53.330Z,47.85
2023-04-18T10:00:56.947Z,46.81
2023-04-18T10:04:01.853Z,46.95
2023-04-18T10:07:04.728Z,46.75
2023-04-18T10:10:08.071Z,46.96
2023-04-18T10:13:11.945Z,48.56
2023-04-18T10:16:15.179Z,48.56
2023-04-18T10:19:26.153Z,47.65
2023-04-18T10:22:29.040Z,47.30
2023-04-18T10:25:41.276Z,48.34
2023-04-18T10:28:56.444Z,48.62
2023-04-18T10:32:06.235Z,48.84
2023-04-18T10:35:10.825Z,47.23
2023-04-18T10:38:17.242Z,45.88
2023-04-18T10:41:22.311Z,44.39
2023-04-18T10:44:25.095Z,45.90
2023-04-18T10:47:28.059Z,46.28
2023-04-18T10:50:30.803Z,46.08
2023-04-18T10:53:33.581Z,44.29
2023-04-18T10:56:36.665Z,43.09
2023-04-18T10:59:44.128Z,44.78
2023-04-18T11:02:52.328Z,42.84
2023-04-18T11:06:01.976Z,43.86
2023-04-18T11:09:11.869Z,41.72
2023-04-18T11:12:14.721Z,43.35
2023-04-18T11:15:22.164Z,41.57
2023-04-18T11:18:25.267Z,44.16
2023-04-18T11:21:30.679Z,40.99
2023-04-18T11:24:34.294Z,42.79
2023-04-18T11:27:36.810Z,42.19
2023-04-18T11:30:41.297Z,41.20
2023-04-18T11:33:47.306Z,40.81
2023-04-18T11:36:51.483Z,40.12
2023-04-18T11:39:54.171Z,38.85
2023-04-18T11:42:57.060Z,40.12
2023-04-18T11:45:59.997Z,39.88
2023-04-18T11:49:03.015Z,38.64
2023-04-18T11:52:11.740Z,38.90
2023-04-18T11:55:14.692Z,39.33
2023-04-18T11:58:17.222Z,39.95
2023-04-18T12:01:22.020Z,39.50
2023-04-18T12:04:25.129Z,37.85
2023-04-18T12:07:34.907Z,38.49
2023-04-18T12:10:38.771Z,37.74
2023-04-18T12:13:41.364Z,38.30
2023-04-18T12:16:44.478Z,39.52
2023-04-18T12:19:50.168Z,38.76
2023-04-18T12:22:55.123Z,38.91
2023-04-18T12:26:06.995Z,37.51
2023-04-18T12:29:09.998Z,37.03
2023-04-18T12:32:12.540Z,36.10
2023-04-18T12:35:16.548Z,36.81
2023-04-18T12:38:23.525Z,36.66
2023-04-18T12:41:26.395Z,35.08
2023-04-18T12:44:28.918Z,36.31
2023-04-18T12:47:31.792Z,36.16
2023-04-18T12:50:34.823Z,35.85
2023-04-18T12:53:38.503Z,36.61
2023-04-18T12:56:41.143Z,35.98
2023-04-18T12:59:43.953Z,35.88
2023-04-18T13:02:47.254Z,35.39
2023-04-18T13:05:50.110Z,35.56
2023-04-18T13:08:52.662Z,35.08
2023-04-18T13:11:56.006Z,34.26
2023-04-18T13:14:58.557Z,34.20
2023-04-18T13:18:05.095Z,36.09
2023-04-18T13:21:08.309Z,34.88
2023-04-18T13:24:11.258Z,35.77
2023-04-18T13:27:14.525Z,34.73
2023-04-18T13:30:17.452Z,33.33
2023-04-18T13:33:20.726Z,33.81
2023-04-18T13:36:24.303Z,33.69
2023-04-18T13:39:27.858Z,33.90
2023-04-18T13:42:30.759Z,32.63
2023-04-18T13:45:33.223Z,32.19
2023-04-18T13:48:36.195Z,32.03
2023-04-18T13:51:38.848Z,31.00
2023-04-18T13:54:42.017Z,31.74
2023-04-18T13:57:44.506Z,29.42
2023-04-18T14:00:47.397Z,29.22
2023-04-18T14:03:50.464Z,29.42
2023-04-18T14:06:53.041Z,29.94
2023-04-18T14:09:55.916Z,30.13
2023-04-18T14:12:58.478Z,30.46
2023-04-18T14:16:01.343Z,29.96
2023-04-18T14:19:04.431Z,28.74
2023-04-18T14:22:07.943Z,30.42
2023-04-18T14:25:10.682Z,31.93
2023-04-18T14:28:13.589Z,30.61
2023-04-18T14:31:16.474Z,32.33
2023-04-18T14:34:19.405Z,31.62
2023-04-18T14:37:22.390Z,31.82
2023-04-18T14:40:25.239Z,32.27
2023-04-18T14:43:27.965Z,31.50
2023-04-18T14:46:30.944Z,31.07
2023-04-18T14:49:33.668Z,31.68
2023-04-18T14:52:36.601Z,31.59
2023-04-18T14:55:39.173Z,31.31
2023-04-18T14:58:42.997Z,31.25
2023-04-18T15:01:45.853Z,31.93
2023-04-18T15:04:49.654Z,33.07
2023-04-18T15:07:52.316Z,33.83
2023-04-18T15:10:55.269Z,33.56
2023-04-18T15:13:57.922Z,32.73
2023-04-18T15:17:02.889Z,33.60
2023-04-18T15:20:07.729Z,33.29
2023-04-18T15:23:13.823Z,33.83
2023-04-18T15:26:16.495Z,34.77
2023-04-18T15:29:19.479Z,33.80
2023-04-18T15:32:23.304Z,33.42
2023-04-18T15:35:26.382Z,34.35
2023-04-18T15:38:30.511Z,34.44
2023-04-18T15:41:36.729Z,34.76
2023-04-18T15:44:39.217Z,34.60
2023-04-18T15:47:42.094Z,34.33
2023-04-18T15:50:50.328Z,34.21
2023-04-18T15:53:53.521Z,34.37
2023-04-18T15:56:56.167Z,33.61
2023-04-18T15:59:59.686Z,33.59
2023-04-18T16:03:02.355Z,32.67
2023-04-18T16:06:05.370Z,33.49
2023-04-18T16:09:08.218Z,33.43
2023-04-18T16:12:11.084Z,33.36
2023-04-18T16:15:13.577Z,33.65
2023-04-18T16:18:16.509Z,33.57
2023-04-18T16:21:19.087Z,33.90
2023-04-18T16:24:21.931Z,34.08
2023-04-18T16:27:24.516Z,33.78
2023-04-18T16:30:27.472Z,34.53
2023-04-18T16:33:30.529Z,34.07
2023-04-18T16:36:34.739Z,34.60
2023-04-18T16:39:37.504Z,35.11
2023-04-18T16:42:41.146Z,34.95
2023-04-18T16:45:43.737Z,35.73
2023-04-18T16:48:46.666Z,35.46
2023-04-18T16:51:49.953Z,35.98
2023-04-18T16:54:53.035Z,36.41
2023-04-18T16:57:55.653Z,35.91
2023-04-18T17:00:58.445Z,36.81
2023-04-18T17:04:02.157Z,37.15
2023-04-18T17:07:05.497Z,38.48
2023-04-18T17:10:10.142Z,40.38
2023-04-18T17:13:13.446Z,42.82
2023-04-18T17:16:16.289Z,43.91
2023-04-18T17:19:19.648Z,45.99
2023-04-18T17:22:22.533Z,46.21
2023-04-18T17:25:25.996Z,46.69
2023-04-18T17:28:28.792Z,47.71
2023-04-18T17:31:32.691Z,49.77
2023-04-18T17:34:35.936Z,48.71
2023-04-18T17:37:39.070Z,50.58
2023-04-18T17:40:42.370Z,49.24
2023-04-18T17:43:46.443Z,49.62
2023-04-18T17:46:50.484Z,50.33
2023-04-18T17:49:53.735Z,50.29
2023-04-18T17:52:57.672Z,50.86
2023-04-18T17:56:00.694Z,51.77
2023-04-18T17:59:03.896Z,51.94
2023-04-18T18:02:07.585Z,52.12
2023-04-18T18:05:13.742Z,52.55
2023-04-18T18:08:17.246Z,52.95
2023-04-18T18:11:21.493Z,53.28
2023-04-18T18:14:24.871Z,54.05
2023-04-18T18:17:29.306Z,54.60
2023-04-18T18:20:32.531Z,54.52
2023-04-18T18:23:36.213Z,54.57
2023-04-18T18:26:39.374Z,54.83
2023-04-18T18:29:42.795Z,55.38
2023-04-18T18:32:45.351Z,56.05
2023-04-18T18:35:56.228Z,55.98
2023-04-18T18:39:04.055Z,56.36
2023-04-18T18:42:07.343Z,54.95
2023-04-18T18:45:10.330Z,56.55
2023-04-18T18:48:14.784Z,57.21
2023-04-18T18:51:20.813Z,57.17
2023-04-18T18:54:25.823Z,54.12
2023-04-18T18:57:28.691Z,52.62
2023-04-18T19:00:32.023Z,49.26
2023-04-18T19:03:37.020Z,49.36
2023-04-18T19:06:41.886Z,48.69
2023-04-18T19:09:46.436Z,48.76
2023-04-18T19:12:49.688Z,48.39
2023-04-18T19:15:52.383Z,48.86
2023-04-18T19:18:56.541Z,49.22
2023-04-18T19:22:01.166Z,48.82
2023-04-18T19:25:04.369Z,48.62
2023-04-18T19:28:07.092Z,48.31
2023-04-18T19:31:10.422Z,48.07
2023-04-18T19:34:13.807Z,47.86
2023-04-18T19:37:17.103Z,48.89
2023-04-18T19:40:20.454Z,48.64
2023-04-18T19:43:27.232Z,47.09
2023-04-18T19:46:30.322Z,47.12
2023-04-18T19:49:36.643Z,47.43
2023-04-18T19:52:39.565Z,47.07
2023-04-18T19:55:44.944Z,47.53
2023-04-18T19:58:49.048Z,46.66
2023-04-18T20:01:52.485Z,46.06
2023-04-18T20:04:55.822Z,46.38
2023-04-18T20:07:58.687Z,45.89
2023-04-18T20:11:02.007Z,45.71
2023-04-18T20:14:04.836Z,45.44
2023-04-18T20:17:07.636Z,46.07
2023-04-18T20:20:11.409Z,45.91
2023-04-18T20:23:14.873Z,46.00
2023-04-18T20:26:17.379Z,46.62
2023-04-18T20:29:20.436Z,46.82
2023-04-18T20:32:23.363Z,47.98
2023-04-18T20:35:28.045Z,47.04
2023-04-18T20:38:30.816Z,46.45
2023-04-18T20:41:34.755Z,46.70
2023-04-18T20:44:38.044Z,46.59
2023-04-18T20:47:42.372Z,45.47
2023-04-18T20:50:51.018Z,45.35
2023-04-18T20:53:54.410Z,45.73
2023-04-18T20:56:56.996Z,46.50
2023-04-18T20:59:59.974Z,46.23
2023-04-18T21:03:03.038Z,46.11
2023-04-18T21:06:06.350Z,46.30
2023-04-18T21:09:09.419Z,46.27
2023-04-18T21:12:17.604Z,46.05
2023-04-18T21:15:20.303Z,45.94
2023-04-18T21:18:23.749Z,46.53
2023-04-18T21:21:27.297Z,47.01
2023-04-18T21:24:30.369Z,47.08
2023-04-18T21:27:32.973Z,46.91
2023-04-18T21:30:36.255Z,47.90
2023-04-18T21:33:38.803Z,47.00
2023-04-18T21:36:41.772Z,47.24
2023-04-18T21:39:44.556Z,47.30
2023-04-18T21:42:49.768Z,47.71
2023-04-18T21:45:52.419Z,48.95
2023-04-18T21:48:55.650Z,47.91
2023-04-18T21:51:58.150Z,48.04
2023-04-18T21:55:01.387Z,48.26
2023-04-18T21:58:03.894Z,48.75
2023-04-18T22:01:06.817Z,49.33
2023-04-18T22:04:09.846Z,49.70
2023-04-18T22:07:12.536Z,49.37
2023-04-18T22:10:16.544Z,49.71
2023-04-18T22:13:19.710Z,49.63
2023-04-18T22:16:22.527Z,50.21
2023-04-18T22:19:25.980Z,50.42
2023-04-18T22:22:28.883Z,51.49
2023-04-18T22:25:31.469Z,50.77
2023-04-18T22:28:34.613Z,51.07
2023-04-18T22:31:37.231Z,52.08
2023-04-18T22:34:40.598Z,53.14
2023-04-18T22:37:43.117Z,52.34
2023-04-18T22:40:46.061Z,53.07
2023-04-18T22:43:48.600Z,52.66
2023-04-18T22:46:54.496Z,54.01
2023-04-18T22:49:57.142Z,54.43
2023-04-18T22:52:59.989Z,54.77
2023-04-18T22:56:02.946Z,54.99
2023-04-18T22:59:05.868Z,55.12
2023-04-18T23:02:08.515Z,54.82
2023-04-18T23:05:11.767Z,53.77
2023-04-18T23:08:14.494Z,55.42
2023-04-18T23:11:17.399Z,54.78
2023-04-18T23:14:21.493Z,55.43
2023-04-18T23:17:24.336Z,54.74
2023-04-18T23:20:26.934Z,56.11
2023-04-18T23:23:29.919Z,55.44
2023-04-18T23:26:32.726Z,55.94
2023-04-18T23:29:39.186Z,56.40
2023-04-18T23:32:41.981Z,56.66
2023-04-18T23:35:44.766Z,56.71
2023-04-18T23:38:47.228Z,56.90
2023-04-18T23:41:50.598Z,56.58
2023-04-18T23:44:53.369Z,57.08
2023-04-18T23:47:56.271Z,57.18
2023-04-18T23:50:59.276Z,57.09
2023-04-18T23:54:02.689Z,57.63
2023-04-18T23:57:05.275Z,57.68
